Ruth, Michigan
Current Conditions -  °F | °C
As of 9:15 AM on Tuesday 27 Jan 2015 (Local Time) from KBAX Reporting Station
Light Snow Light Snow  
Wind Chill:   Ceiling: 2300
Heat Index: 19°   Visibility: 4mi
Dew Point: 15°   Wind: 9mph
Humidity: 86%   Direction: 20°NNE
Pressure: 30.11"   Gusts: NA
Location:  43.72°N, 82.74°W
Report Text: KBAX 271415Z AUTO 02008KT 4SM -SN OVC023 M07/M09 A3011 RMK AO2 T10751095
Loading
Personal Weather Stations






























Interactive Weather Map New forecast layout! Learn more

10-Day Weather Forecast

Advertisements
Track Severe Weather on mobile